Accueil
METAR-TAF:

METAR-TAF

Aéroports :

Aéroport international de Koweït

Koweït, Koweït

latitude: 29-13N, longitude: 047-59E, altitude: 55 m

Observation

Le bulletin a été fait il y a 1 heure et 1 minutes, à 06:00 UTC
Vent 6 kt de nord/nord-est
Température 13°C
Humidité 62%
Pression 1019 hPa
Visibilité: 7000 m

METAR: OKBK 230600Z 03006KT 7000 NSC 13/06 Q1019 NOSIG

Heure: 10:01 (07:01 UTC)

Prévision

Le bulletin a été fait il y a 2 heures et 16 minutes, à 04:45 UTC
Prévision valable du 23 à 06 UTC au 24 à 12 UTC
Vent 3 kt de direction variable
Visibilité: 7000 m
Temporairement
du 23 à 06 UTC au 23 à 08 UTC
Visibilité: 4000 m
brume sèche

TAF: OKBK 230445Z 2306/2412 VRB03KT 7000 NSC TEMPO 2306/2308 4000 HZ

Observations et prévisions météorologiques de plus de 4000 aéroports (messages METAR et TAF).

Les stations disponibles sont représentées par des disques jaunes et rouges sur la carte.

Passer la souris dessus pour voir le nom de la station.

Cliquer dessus pour voir les observations et prévisions météorologiques.

Pour changer de carte: cliquez sur les boutons verts avec une croix noire pour zoomer, sur le bouton vert avec un tiret pour effectuer un zoom arrière, ou sur les flèches vertes pour les cartes adjacentes.


METAR-TAF: